»·PEaware :: UAL180 KPHX-KSAN

UAL180 :: KPHX-KSAN

FLIGHT INFORMATION

Flight Status: Arrived
Operator:
United Airlines
More flights by this operator :: More flights under this callsign
Pilot: Etienne B. (28927)
Aircraft: AIRBUS A320
(A320)
More flights by this aircraft type
Origin: KPHX Phoenix Sky Harbor Intl
United States
Destination: KSAN San Diego Intl-Lindbergh
United States
More flights between these airports :: More routes between these airports
Route: +FYRBD1 MOHAK J2 HOGGZ LUCKI1
File this flight plan on PilotEdge
Remarks: RMK / SIMBRIEF
Altitude:
(Current/Filed)
34,000ft
Speed:
(Current/Filed)
450kts
Departed: 19-Apr-20 05:10 PM
Arrived: 19-Apr-20 06:04 PM
Distance/Time
Traveled:
264nm/0:53
Distance/Time
To Go:
Arrived

Flight Plot

Page will automatically refresh every two minutes.

Flight plan parsing failed; only flown route is shown


Map Options




Map Legend


Flown Route
Filed Route
Departure Airport
Arrival Airport
Navaid (VOR, NDB)
Fix

Horizontal Profiles

Position Reports

Time Latitude Longitude Heading Altitude Ground
Speed
19-Apr-20 16:48 33.433684 -111.997302 68 1125ft 0kts
19-Apr-20 16:49 33.433684 -111.997302 68 1125ft 0kts
19-Apr-20 16:50 33.433684 -111.997302 68 1125ft 0kts
19-Apr-20 16:51 33.433684 -111.997302 68 1125ft 0kts
19-Apr-20 16:52 33.433684 -111.997302 68 1125ft 0kts
19-Apr-20 16:53 33.433684 -111.997302 68 1125ft 0kts
19-Apr-20 16:54 33.433684 -111.997302 68 1125ft 0kts
19-Apr-20 16:55 33.433684 -111.997302 68 1125ft 0kts
19-Apr-20 16:56 33.433683 -111.997303 68 1125ft 0kts
19-Apr-20 16:57 33.433683 -111.997303 68 1125ft 0kts
19-Apr-20 16:58 33.433683 -111.997303 68 1125ft 0kts
19-Apr-20 16:59 33.433737 -111.997693 134 1126ft 2kts
19-Apr-20 17:00 33.434158 -111.997803 179 1126ft 0kts
19-Apr-20 17:01 33.434158 -111.997803 179 1126ft 0kts
19-Apr-20 17:02 33.432695 -111.998082 259 1125ft 8kts
19-Apr-20 17:03 33.432839 -112.002252 269 1127ft 13kts
19-Apr-20 17:04 33.432880 -112.006528 269 1128ft 16kts
19-Apr-20 17:05 33.432887 -112.014105 269 1125ft 25kts
19-Apr-20 17:06 33.432894 -112.023159 270 1118ft 28kts
19-Apr-20 17:07 33.432372 -112.026961 180 1115ft 0kts
19-Apr-20 17:08 33.431117 -112.026734 113 1115ft 3kts
19-Apr-20 17:09 33.431005 -112.002897 90 1272ft 182kts
19-Apr-20 17:10 33.430095 -111.934193 90 3985ft 228kts
19-Apr-20 17:11 33.414511 -111.860062 144 7052ft 249kts
19-Apr-20 17:12 33.357056 -111.862864 249 10259ft 237kts
19-Apr-20 17:13 33.358402 -111.944430 275 12729ft 266kts
19-Apr-20 17:14 33.348833 -112.040509 236 13938ft 336kts
19-Apr-20 17:15 33.288942 -112.137200 236 15220ft 376kts
19-Apr-20 17:16 33.226487 -112.238335 236 17335ft 381kts
19-Apr-20 17:17 33.163309 -112.340679 237 19166ft 386kts
19-Apr-20 17:18 33.099029 -112.444566 237 20836ft 391kts
19-Apr-20 17:19 33.034483 -112.548582 237 22436ft 392kts
19-Apr-20 17:20 32.970339 -112.653767 242 23894ft 390kts
19-Apr-20 17:21 32.942735 -112.776872 260 25165ft 389kts
19-Apr-20 17:22 32.925457 -112.904456 261 26341ft 392kts
19-Apr-20 17:23 32.907943 -113.032937 261 27366ft 395kts
19-Apr-20 17:24 32.890188 -113.162245 261 28267ft 397kts
19-Apr-20 17:25 32.872332 -113.291242 261 29274ft 393kts
19-Apr-20 17:26 32.854572 -113.418555 261 30326ft 387kts
19-Apr-20 17:27 32.837074 -113.543093 261 31356ft 379kts
19-Apr-20 17:28 32.819683 -113.665968 261 32264ft 373kts
19-Apr-20 17:29 32.802497 -113.786612 261 33200ft 368kts
19-Apr-20 17:30 32.785473 -113.905433 261 33930ft 364kts
19-Apr-20 17:31 32.775381 -114.024331 268 33939ft 362kts
19-Apr-20 17:32 32.777968 -114.144284 271 33939ft 364kts
19-Apr-20 17:33 32.782721 -114.264163 270 33935ft 363kts
19-Apr-20 17:34 32.788899 -114.383583 277 33926ft 365kts
19-Apr-20 17:35 32.818841 -114.499915 283 33549ft 366kts
19-Apr-20 17:36 32.850752 -114.616226 283 32559ft 375kts
19-Apr-20 17:37 32.878126 -114.735807 272 31588ft 375kts
19-Apr-20 17:38 32.876432 -114.860391 267 30598ft 381kts
19-Apr-20 17:39 32.873545 -114.987493 267 29616ft 387kts
19-Apr-20 17:40 32.870490 -115.116936 267 28618ft 396kts
19-Apr-20 17:41 32.867221 -115.249503 267 27624ft 405kts
19-Apr-20 17:42 32.859021 -115.383420 260 26564ft 405kts
19-Apr-20 17:43 32.840408 -115.511774 259 24497ft 385kts
19-Apr-20 17:44 32.820186 -115.635568 259 22553ft 378kts
19-Apr-20 17:46 32.800282 -115.756712 258 20551ft 373kts
19-Apr-20 17:47 32.783002 -115.877167 264 18416ft 368kts
19-Apr-20 17:48 32.774085 -115.997213 264 16120ft 362kts
19-Apr-20 17:49 32.765148 -116.115334 264 14021ft 355kts
19-Apr-20 17:50 32.756708 -116.225172 264 13270ft 309kts
19-Apr-20 17:51 32.749287 -116.321023 264 12412ft 281kts
19-Apr-20 17:52 32.742149 -116.413233 264 11023ft 276kts
19-Apr-20 17:53 32.735227 -116.501432 264 10170ft 256kts
19-Apr-20 17:54 32.727399 -116.583172 263 9055ft 246kts
19-Apr-20 17:55 32.719792 -116.661355 263 7932ft 243kts
19-Apr-20 17:56 32.713458 -116.742082 264 6756ft 243kts
19-Apr-20 17:57 32.706536 -116.820484 255 5964ft 226kts
19-Apr-20 17:58 32.684972 -116.890470 251 4901ft 225kts
19-Apr-20 17:59 32.678731 -116.961725 285 3792ft 223kts
19-Apr-20 18:00 32.695321 -117.031498 286 3097ft 195kts
19-Apr-20 18:01 32.708469 -117.086066 287 2041ft 153kts
19-Apr-20 18:02 32.719461 -117.131913 289 943ft 140kts
19-Apr-20 18:03 32.730090 -117.175568 288 155ft 134kts
19-Apr-20 18:03 32.734310 -117.194733 246 22ft 4kts
19-Apr-20 18:05 32.734079 -117.196085 283 20ft 8kts

Navigation Log

Ident Type
Flight plan parsing failed, navigation log unavailable